Time;durP1;ratioP1;P1;durP2;ratioP2;P2;SDS_P1;SDS_P2;PMS_P1;PMS_P2;Temp;Humidity;BMP_temperature;BMP_pressure;BME280_temperature;BME280_humidity;BME280_pressure;Samples;Min_cycle;Max_cycle;Signal;HPM_P1;HPM_P2
2022/04/28 00:00:33;;;;;;;12.07;6.72;;;;;;;;;;5057658;28;20223;-69
2022/04/28 00:03:03;;;;;;;13.38;7.47;;;;;;;;;;5058037;28;20199;-65
2022/04/28 00:05:31;;;;;;;11.25;7.70;;;;;;;;;;5057661;28;20208;-68
2022/04/28 00:07:58;;;;;;;14.60;8.57;;;;;;;;;;5058380;28;20196;-67
2022/04/28 00:10:25;;;;;;;14.43;8.82;;;;;;;;;;5057736;28;20251;-66
2022/04/28 00:12:53;;;;;;;14.05;9.20;;;;;;;;;;5057411;28;20653;-64
2022/04/28 00:15:20;;;;;;;15.60;7.70;;;;;;;;;;5057520;28;20210;-64
2022/04/28 00:17:47;;;;;;;12.07;7.40;;;;;;;;;;5057444;28;20200;-65
2022/04/28 00:20:14;;;;;;;11.02;7.10;;;;;;;;;;5057290;28;20223;-64
2022/04/28 00:22:46;;;;;;;12.23;7.65;;;;;;;;;;5057426;28;20283;-67
2022/04/28 00:25:13;;;;;;;10.38;7.15;;;;;;;;;;5056499;28;20635;-68
2022/04/28 00:27:40;;;;;;;15.73;7.78;;;;;;;;;;5057074;28;20661;-67
2022/04/28 00:30:08;;;;;;;9.00;7.20;;;;;;;;;;5056965;28;20211;-62
2022/04/28 00:32:35;;;;;;;14.77;7.75;;;;;;;;;;5057154;28;20278;-64
2022/04/28 00:35:03;;;;;;;11.07;7.28;;;;;;;;;;5056900;28;20631;-63
2022/04/28 00:37:30;;;;;;;21.40;11.65;;;;;;;;;;5057152;28;20712;-67
2022/04/28 00:39:57;;;;;;;19.88;11.68;;;;;;;;;;5089368;28;20219;-64
2022/04/28 00:42:24;;;;;;;26.10;14.25;;;;;;;;;;5057178;28;20208;-65
2022/04/28 00:44:51;;;;;;;25.38;13.70;;;;;;;;;;5057064;28;20196;-64
2022/04/28 00:47:19;;;;;;;11.15;7.53;;;;;;;;;;5055978;28;20682;-64
2022/04/28 00:52:33;;;;;;;10.73;7.32;;;;;;;;;;5054286;28;20211;-65
2022/04/28 00:55:00;;;;;;;10.10;7.43;;;;;;;;;;5056131;28;20704;-65
2022/04/28 00:57:31;;;;;;;12.60;7.95;;;;;;;;;;5035701;28;20235;-65
2022/04/28 00:59:58;;;;;;;12.85;8.05;;;;;;;;;;5035722;28;20220;-65
2022/04/28 01:02:26;;;;;;;12.60;8.25;;;;;;;;;;5035616;28;20274;-65
2022/04/28 01:04:53;;;;;;;16.67;9.68;;;;;;;;;;5035385;28;20214;-67
2022/04/28 01:07:21;;;;;;;14.55;8.77;;;;;;;;;;5035630;28;20205;-69
2022/04/28 01:09:49;;;;;;;21.13;11.60;;;;;;;;;;5068933;28;20228;-66
2022/04/28 01:12:20;;;;;;;15.57;8.55;;;;;;;;;;5035439;28;20318;-67
2022/04/28 01:14:54;;;;;;;13.05;7.97;;;;;;;;;;5069128;28;20204;-63
2022/04/28 01:17:22;;;;;;;13.27;8.02;;;;;;;;;;5068630;28;20533;-67
2022/04/28 01:20:02;;;;;;;11.45;7.80;;;;;;;;;;5068597;28;20252;-63
2022/04/28 01:22:32;;;;;;;16.23;7.65;;;;;;;;;;5035571;28;20274;-64
2022/04/28 01:25:07;;;;;;;13.57;7.78;;;;;;;;;;5068391;28;20205;-62
2022/04/28 01:27:36;;;;;;;12.57;7.50;;;;;;;;;;5068602;28;20271;-64
2022/04/28 01:30:04;;;;;;;11.82;7.75;;;;;;;;;;5068904;28;20215;-63
2022/04/28 01:32:32;;;;;;;13.77;7.50;;;;;;;;;;5035591;28;20204;-63
2022/04/28 01:34:59;;;;;;;11.23;7.25;;;;;;;;;;5067989;28;20204;-63
2022/04/28 01:37:29;;;;;;;12.90;7.45;;;;;;;;;;5068993;28;20209;-63
2022/04/28 01:39:57;;;;;;;11.15;7.38;;;;;;;;;;5035221;28;20614;-63
2022/04/28 01:42:25;;;;;;;11.60;6.68;;;;;;;;;;5035821;28;20224;-62
2022/04/28 01:44:52;;;;;;;14.23;6.95;;;;;;;;;;5035105;28;20258;-64
2022/04/28 01:47:20;;;;;;;11.82;7.38;;;;;;;;;;5034810;28;20254;-64
2022/04/28 01:50:16;;;;;;;15.38;7.70;;;;;;;;;;5030899;28;20213;-62
2022/04/28 01:56:08;;;;;;;11.63;7.38;;;;;;;;;;5035965;28;20274;-63
2022/04/28 01:58:58;;;;;;;11.68;7.53;;;;;;;;;;5032476;28;20658;-63
2022/04/28 02:01:42;;;;;;;11.60;7.73;;;;;;;;;;5034892;28;20189;-62
2022/04/28 02:04:10;;;;;;;11.65;6.93;;;;;;;;;;5067783;28;20621;-63
2022/04/28 02:06:37;;;;;;;11.82;7.88;;;;;;;;;;5068305;28;20538;-63
2022/04/28 02:09:05;;;;;;;12.27;8.10;;;;;;;;;;5034447;28;20234;-63
2022/04/28 02:11:32;;;;;;;13.50;7.63;;;;;;;;;;5067483;28;20205;-63
2022/04/28 02:14:24;;;;;;;12.82;7.35;;;;;;;;;;5067537;28;20588;-64
2022/04/28 02:17:10;;;;;;;13.82;7.97;;;;;;;;;;5035724;28;20267;-63
2022/04/28 02:19:37;;;;;;;12.55;7.65;;;;;;;;;;5034244;28;20690;-63
2022/04/28 02:22:04;;;;;;;17.70;7.97;;;;;;;;;;5035108;28;20601;-63
2022/04/28 02:24:37;;;;;;;14.80;7.63;;;;;;;;;;5067307;28;20704;-63
2022/04/28 02:27:06;;;;;;;12.60;7.68;;;;;;;;;;5034038;28;20201;-63
2022/04/28 02:29:34;;;;;;;13.02;8.13;;;;;;;;;;5067592;28;20205;-63
2022/04/28 02:32:01;;;;;;;13.80;8.57;;;;;;;;;;5034688;28;20200;-63
2022/04/28 02:34:29;;;;;;;12.82;8.55;;;;;;;;;;5034949;28;20282;-63
2022/04/28 02:36:57;;;;;;;13.32;8.57;;;;;;;;;;5067279;28;20533;-64
2022/04/28 02:39:26;;;;;;;16.17;10.05;;;;;;;;;;5066893;28;20228;-63
2022/04/28 02:41:57;;;;;;;16.15;8.48;;;;;;;;;;5033712;28;20205;-63
2022/04/28 02:44:24;;;;;;;16.50;9.38;;;;;;;;;;5033868;28;20271;-64
2022/04/28 02:46:51;;;;;;;13.33;8.00;;;;;;;;;;5033168;28;20197;-63
2022/04/28 02:49:28;;;;;;;13.13;8.67;;;;;;;;;;5033423;28;20249;-64
2022/04/28 02:51:57;;;;;;;17.23;10.30;;;;;;;;;;5067015;28;20519;-63
2022/04/28 02:54:27;;;;;;;15.50;9.60;;;;;;;;;;5033523;28;20213;-64
2022/04/28 02:56:55;;;;;;;18.15;10.00;;;;;;;;;;5033808;28;20200;-63
2022/04/28 02:59:22;;;;;;;18.70;9.70;;;;;;;;;;5034576;28;20211;-64
2022/04/28 03:01:51;;;;;;;15.97;9.00;;;;;;;;;;5066998;28;20306;-63
2022/04/28 03:04:19;;;;;;;13.77;8.33;;;;;;;;;;5033438;28;20209;-63
2022/04/28 03:12:19;;;;;;;15.25;9.23;;;;;;;;;;5033584;28;20616;-64
2022/04/28 03:15:06;;;;;;;18.50;11.30;;;;;;;;;;5033356;28;20239;-64
2022/04/28 03:17:33;;;;;;;21.83;9.77;;;;;;;;;;5033290;28;20212;-63
2022/04/28 03:20:01;;;;;;;15.67;9.30;;;;;;;;;;5066464;28;20220;-65
2022/04/28 03:22:29;;;;;;;14.40;9.27;;;;;;;;;;5034122;28;20667;-65
2022/04/28 03:24:57;;;;;;;14.13;9.53;;;;;;;;;;5034138;28;20201;-65
2022/04/28 03:27:27;;;;;;;20.73;12.07;;;;;;;;;;5066544;28;20252;-65
2022/04/28 03:29:55;;;;;;;16.97;11.47;;;;;;;;;;5033259;28;20216;-65
2022/04/28 03:32:22;;;;;;;20.93;10.63;;;;;;;;;;5036702;28;20228;-65
2022/04/28 03:34:59;;;;;;;16.83;10.50;;;;;;;;;;5052493;28;20227;-66
2022/04/28 03:37:28;;;;;;;14.60;9.20;;;;;;;;;;5085756;28;20265;-62
2022/04/28 03:39:55;;;;;;;14.57;9.80;;;;;;;;;;5052275;28;20246;-64
2022/04/28 03:42:22;;;;;;;22.90;10.60;;;;;;;;;;5053167;28;20232;-64
2022/04/28 03:44:50;;;;;;;21.13;10.57;;;;;;;;;;5052623;28;20224;-66
2022/04/28 03:47:17;;;;;;;18.17;9.37;;;;;;;;;;5045576;28;20540;-66
2022/04/28 03:49:45;;;;;;;16.07;9.23;;;;;;;;;;5065226;28;20295;-65
2022/04/28 03:52:12;;;;;;;12.73;8.80;;;;;;;;;;5032576;28;20256;-66
2022/04/28 03:54:39;;;;;;;17.25;9.55;;;;;;;;;;5065493;28;20239;-63
2022/04/28 03:57:08;;;;;;;15.37;9.60;;;;;;;;;;5032224;28;20232;-66
2022/04/28 03:59:35;;;;;;;15.93;8.97;;;;;;;;;;5041223;28;20521;-64
2022/04/28 04:02:22;;;;;;;17.17;8.80;;;;;;;;;;5051246;28;20224;-64
2022/04/28 04:04:49;;;;;;;76.55;32.95;;;;;;;;;;5055028;28;20250;-62
2022/04/28 04:07:17;;;;;;;32.10;16.35;;;;;;;;;;5045827;28;20227;-64
2022/04/28 04:09:53;;;;;;;19.08;9.80;;;;;;;;;;5050038;28;20265;-64
2022/04/28 04:12:33;;;;;;;20.60;10.60;;;;;;;;;;5048485;28;20661;-64
2022/04/28 04:15:13;;;;;;;18.13;9.85;;;;;;;;;;5050730;28;20211;-65
2022/04/28 04:18:06;;;;;;;16.42;9.95;;;;;;;;;;5051258;28;20217;-64
2022/04/28 04:20:44;;;;;;;13.63;8.93;;;;;;;;;;5036343;28;20239;-64
2022/04/28 04:23:12;;;;;;;14.52;8.98;;;;;;;;;;5035443;28;20278;-63
2022/04/28 04:25:39;;;;;;;12.23;7.75;;;;;;;;;;5035504;28;20225;-66
2022/04/28 04:28:13;;;;;;;13.50;8.48;;;;;;;;;;5035325;28;20533;-66
2022/04/28 04:33:55;;;;;;;12.48;8.25;;;;;;;;;;5035922;28;20286;-62
2022/04/28 04:36:23;;;;;;;27.85;16.02;;;;;;;;;;5036997;28;20282;-66
2022/04/28 04:38:51;;;;;;;42.50;24.73;;;;;;;;;;5053358;28;20678;-73
2022/04/28 04:41:18;;;;;;;24.65;14.38;;;;;;;;;;5055084;28;20239;-68
2022/04/28 04:43:45;;;;;;;23.10;11.75;;;;;;;;;;5054099;28;20290;-64
2022/04/28 04:46:12;;;;;;;26.45;11.18;;;;;;;;;;5055011;28;20239;-69
2022/04/28 04:48:42;;;;;;;25.80;13.52;;;;;;;;;;5042880;28;20240;-65
2022/04/28 04:51:29;;;;;;;41.72;20.58;;;;;;;;;;5034270;28;20695;-70
2022/04/28 04:54:15;;;;;;;45.60;20.25;;;;;;;;;;5034777;28;20251;-72
2022/04/28 04:56:42;;;;;;;67.43;27.52;;;;;;;;;;5033924;28;20252;-70
2022/04/28 04:59:09;;;;;;;8.57;4.85;;;;;;;;;;5033984;28;20240;-67
2022/04/28 05:01:37;;;;;;;10.70;4.03;;;;;;;;;;5044756;28;20301;-70
2022/04/28 05:04:23;;;;;;;10.60;6.55;;;;;;;;;;5050674;28;20267;-69
2022/04/28 05:07:09;;;;;;;10.77;6.47;;;;;;;;;;5051839;28;20212;-73
2022/04/28 05:09:38;;;;;;;9.27;4.40;;;;;;;;;;5051564;28;20581;-70
2022/04/28 05:12:06;;;;;;;8.05;4.80;;;;;;;;;;5052485;28;20228;-68
2022/04/28 05:14:48;;;;;;;13.32;7.55;;;;;;;;;;5051995;28;20219;-71
2022/04/28 05:17:16;;;;;;;6.07;4.63;;;;;;;;;;5052105;28;20306;-61
2022/04/28 05:19:52;;;;;;;10.55;6.80;;;;;;;;;;5050895;28;20233;-69
2022/04/28 05:22:55;;;;;;;16.65;11.55;;;;;;;;;;5011775;28;20251;-77
2022/04/28 05:25:25;;;;;;;9.68;6.15;;;;;;;;;;5042936;28;20220;-68
2022/04/28 05:28:28;;;;;;;8.35;5.63;;;;;;;;;;5030565;28;20745;-70
2022/04/28 05:31:33;;;;;;;9.15;5.38;;;;;;;;;;4974399;28;20233;-70
2022/04/28 05:34:09;;;;;;;6.30;3.38;;;;;;;;;;4974479;28;20261;-70
2022/04/28 05:36:53;;;;;;;7.45;4.88;;;;;;;;;;4958219;28;20234;-73
2022/04/28 05:39:20;;;;;;;6.22;3.60;;;;;;;;;;4974546;28;20317;-73
2022/04/28 05:41:48;;;;;;;6.88;3.90;;;;;;;;;;4974229;28;20676;-68
2022/04/28 05:47:02;;;;;;;4.00;3.15;;;;;;;;;;4968822;28;20734;-73
2022/04/28 05:49:30;;;;;;;9.57;6.03;;;;;;;;;;5013064;28;20564;-72
2022/04/28 05:51:59;;;;;;;9.68;4.18;;;;;;;;;;5013411;28;20245;-72
2022/04/28 05:54:26;;;;;;;9.40;5.90;;;;;;;;;;5013317;28;20225;-72
2022/04/28 05:56:53;;;;;;;4.68;2.30;;;;;;;;;;5013409;28;20225;-72
2022/04/28 05:59:20;;;;;;;5.25;2.55;;;;;;;;;;5013192;28;20225;-72
2022/04/28 06:02:07;;;;;;;4.15;2.30;;;;;;;;;;5021775;28;20689;-72
2022/04/28 06:04:34;;;;;;;2.50;1.90;;;;;;;;;;5033430;28;20629;-66
2022/04/28 06:07:02;;;;;;;6.15;1.77;;;;;;;;;;5033923;28;20236;-67
2022/04/28 06:09:32;;;;;;;3.20;1.92;;;;;;;;;;5033942;28;20225;-65
2022/04/28 06:12:00;;;;;;;5.25;2.20;;;;;;;;;;5033594;28;20232;-73
2022/04/28 06:14:38;;;;;;;7.22;2.10;;;;;;;;;;5033528;28;20232;-73
2022/04/28 06:17:28;;;;;;;3.40;1.85;;;;;;;;;;5049215;28;20223;-75
2022/04/28 06:19:55;;;;;;;5.28;2.00;;;;;;;;;;5073263;28;20562;-70
2022/04/28 06:23:11;;;;;;;5.80;2.00;;;;;;;;;;5012474;28;20222;-73
2022/04/28 06:25:43;;;;;;;3.63;1.70;;;;;;;;;;4996359;28;20240;-73
2022/04/28 06:28:12;;;;;;;2.70;1.52;;;;;;;;;;4996617;28;20231;-73
2022/04/28 06:30:42;;;;;;;3.58;2.00;;;;;;;;;;4995698;28;20233;-73
2022/04/28 06:33:21;;;;;;;2.25;1.70;;;;;;;;;;4996596;28;20260;-73
2022/04/28 06:36:02;;;;;;;3.38;1.80;;;;;;;;;;4996647;28;20676;-71
2022/04/28 06:38:36;;;;;;;4.05;2.00;;;;;;;;;;4996300;28;20224;-68
2022/04/28 06:41:07;;;;;;;6.00;2.00;;;;;;;;;;4996090;28;20240;-69
2022/04/28 06:43:37;;;;;;;3.67;1.70;;;;;;;;;;4996129;28;20225;-69
2022/04/28 06:46:31;;;;;;;4.53;1.50;;;;;;;;;;5008513;28;20225;-69
2022/04/28 06:49:17;;;;;;;2.85;1.55;;;;;;;;;;4973659;28;20245;-69
2022/04/28 06:51:56;;;;;;;1.73;1.40;;;;;;;;;;4973404;28;20226;-72
2022/04/28 06:54:44;;;;;;;4.72;1.73;;;;;;;;;;4953846;29;20235;-71
2022/04/28 06:57:15;;;;;;;4.38;1.75;;;;;;;;;;4938495;29;20686;-63
2022/04/28 06:59:42;;;;;;;2.55;1.50;;;;;;;;;;4991708;28;20237;-70
2022/04/28 07:02:12;;;;;;;4.40;2.00;;;;;;;;;;5013292;28;20340;-70
2022/04/28 07:04:44;;;;;;;2.90;1.50;;;;;;;;;;5045638;28;20225;-70
2022/04/28 07:07:14;;;;;;;2.58;1.40;;;;;;;;;;5013380;28;20305;-69
2022/04/28 07:09:44;;;;;;;5.47;1.90;;;;;;;;;;5012857;28;20232;-69
2022/04/28 07:12:32;;;;;;;7.97;1.88;;;;;;;;;;5046321;28;20228;-68
2022/04/28 07:15:00;;;;;;;9.38;1.65;;;;;;;;;;5013625;28;20229;-69
2022/04/28 07:18:03;;;;;;;3.17;2.00;;;;;;;;;;5024414;28;20319;-69
2022/04/28 07:20:34;;;;;;;2.47;1.63;;;;;;;;;;5033286;28;20536;-69
2022/04/28 07:23:02;;;;;;;3.85;2.08;;;;;;;;;;5033657;28;20307;-69
2022/04/28 07:25:30;;;;;;;4.32;1.98;;;;;;;;;;5032929;28;20221;-70
2022/04/28 07:27:58;;;;;;;2.55;1.75;;;;;;;;;;5033854;28;20274;-69
2022/04/28 07:30:57;;;;;;;3.28;1.83;;;;;;;;;;5022024;28;20240;-69
2022/04/28 07:33:43;;;;;;;3.33;1.95;;;;;;;;;;5034096;28;20298;-69
2022/04/28 07:36:30;;;;;;;3.75;1.85;;;;;;;;;;5036065;28;20614;-70
2022/04/28 07:39:23;;;;;;;7.25;2.00;;;;;;;;;;5007457;28;20220;-66
2022/04/28 07:42:16;;;;;;;4.15;1.83;;;;;;;;;;5019320;28;20236;-69
2022/04/28 07:44:46;;;;;;;7.20;1.90;;;;;;;;;;5035221;28;20221;-69
2022/04/28 07:47:13;;;;;;;3.15;1.50;;;;;;;;;;5019372;28;20324;-72
2022/04/28 07:50:04;;;;;;;3.30;1.92;;;;;;;;;;5034871;28;20236;-68
2022/04/28 07:52:31;;;;;;;4.35;1.98;;;;;;;;;;5035413;28;20631;-68
2022/04/28 07:54:59;;;;;;;6.05;1.83;;;;;;;;;;5018324;28;20228;-72
2022/04/28 07:57:27;;;;;;;2.97;1.65;;;;;;;;;;5019111;28;20228;-70
2022/04/28 07:59:54;;;;;;;3.38;1.73;;;;;;;;;;5018458;28;20221;-71
2022/04/28 08:02:21;;;;;;;4.68;1.50;;;;;;;;;;5018853;28;20686;-67
2022/04/28 08:04:51;;;;;;;3.22;1.40;;;;;;;;;;5018304;28;20231;-61
2022/04/28 08:07:20;;;;;;;3.05;1.58;;;;;;;;;;5064846;28;20224;-76
2022/04/28 08:09:52;;;;;;;4.93;1.90;;;;;;;;;;5055294;28;20227;-67
2022/04/28 08:12:22;;;;;;;1.90;1.50;;;;;;;;;;5056190;28;20754;-71
2022/04/28 08:15:30;;;;;;;5.55;2.35;;;;;;;;;;5056769;28;20228;-67
2022/04/28 08:17:57;;;;;;;5.25;1.80;;;;;;;;;;5055975;28;20246;-73
2022/04/28 08:20:25;;;;;;;4.85;1.52;;;;;;;;;;5056022;28;20258;-69
2022/04/28 08:22:52;;;;;;;2.65;1.60;;;;;;;;;;5055338;28;20250;-68
2022/04/28 08:25:20;;;;;;;3.15;1.50;;;;;;;;;;5040294;28;20221;-70
2022/04/28 08:27:53;;;;;;;2.70;1.63;;;;;;;;;;5035764;28;20232;-74
2022/04/28 08:30:20;;;;;;;2.75;1.30;;;;;;;;;;5035665;28;20231;-71
2022/04/28 08:32:47;;;;;;;2.45;1.40;;;;;;;;;;5035607;28;20749;-71
2022/04/28 08:35:15;;;;;;;3.83;1.30;;;;;;;;;;5035296;28;20678;-70
2022/04/28 08:37:43;;;;;;;4.30;1.33;;;;;;;;;;5035754;28;20217;-71
2022/04/28 08:40:11;;;;;;;3.58;1.40;;;;;;;;;;5035330;28;20236;-75
2022/04/28 08:42:41;;;;;;;3.33;1.50;;;;;;;;;;5035930;28;20233;-71
2022/04/28 08:45:18;;;;;;;7.50;1.23;;;;;;;;;;5035526;28;20201;-61
2022/04/28 08:48:12;;;;;;;2.88;1.40;;;;;;;;;;5036703;28;20232;-71
2022/04/28 08:50:48;;;;;;;2.85;1.63;;;;;;;;;;5036067;28;20185;-70
2022/04/28 08:53:18;;;;;;;2.60;1.40;;;;;;;;;;5036189;28;20196;-70
2022/04/28 08:55:47;;;;;;;3.88;1.58;;;;;;;;;;5036190;28;20638;-72
2022/04/28 08:58:17;;;;;;;1.90;1.20;;;;;;;;;;5035783;28;20205;-70
2022/04/28 09:00:52;;;;;;;3.80;1.80;;;;;;;;;;5035778;28;20212;-70
2022/04/28 09:03:25;;;;;;;4.65;1.73;;;;;;;;;;5036741;28;20607;-71
2022/04/28 09:06:15;;;;;;;2.30;1.83;;;;;;;;;;5036658;28;20639;-71
2022/04/28 09:09:09;;;;;;;3.63;1.52;;;;;;;;;;5036438;28;20638;-71
2022/04/28 09:12:00;;;;;;;3.15;1.70;;;;;;;;;;5036681;28;20212;-70
2022/04/28 09:14:46;;;;;;;1.90;1.40;;;;;;;;;;5036737;28;20225;-70
2022/04/28 09:17:18;;;;;;;3.92;1.67;;;;;;;;;;5036072;28;20557;-71
2022/04/28 09:19:47;;;;;;;5.38;3.22;;;;;;;;;;5035505;28;20205;-70
2022/04/28 09:22:23;;;;;;;2.42;1.73;;;;;;;;;;5035482;28;20235;-70
2022/04/28 09:24:56;;;;;;;3.15;1.95;;;;;;;;;;5035273;28;20189;-71
2022/04/28 09:27:25;;;;;;;3.00;2.10;;;;;;;;;;5036513;28;20213;-71
2022/04/28 09:29:55;;;;;;;3.22;2.10;;;;;;;;;;5035497;28;20208;-71
2022/04/28 09:32:25;;;;;;;2.88;1.73;;;;;;;;;;5035143;28;20295;-71
2022/04/28 09:35:30;;;;;;;2.20;1.35;;;;;;;;;;5035883;28;20212;-71
2022/04/28 09:38:06;;;;;;;2.50;1.40;;;;;;;;;;5035248;28;20204;-71
2022/04/28 09:43:41;;;;;;;4.97;2.97;;;;;;;;;;5035190;28;20368;-72
2022/04/28 09:46:13;;;;;;;5.85;2.75;;;;;;;;;;5035265;28;20223;-71
2022/04/28 09:48:42;;;;;;;3.38;2.10;;;;;;;;;;5034780;28;20228;-71
2022/04/28 09:51:21;;;;;;;5.13;2.25;;;;;;;;;;5035024;28;20528;-71
2022/04/28 09:54:07;;;;;;;5.43;2.38;;;;;;;;;;5034989;28;20545;-71
2022/04/28 09:57:04;;;;;;;4.97;2.40;;;;;;;;;;4974157;28;20268;-71
2022/04/28 09:59:33;;;;;;;3.30;2.38;;;;;;;;;;4959055;28;20221;-71
2022/04/28 10:02:01;;;;;;;4.63;2.72;;;;;;;;;;4959154;28;20297;-72
2022/04/28 10:08:47;;;;;;;5.75;2.83;;;;;;;;;;4975122;28;20242;-70
2022/04/28 10:11:20;;;;;;;3.22;2.80;;;;;;;;;;4958851;28;20538;-69
2022/04/28 10:13:49;;;;;;;3.42;2.85;;;;;;;;;;4974969;28;20326;-70
2022/04/28 10:16:21;;;;;;;5.25;2.67;;;;;;;;;;4975558;28;20318;-70
2022/04/28 10:19:09;;;;;;;4.28;3.08;;;;;;;;;;4959330;28;20214;-70
2022/04/28 10:21:50;;;;;;;6.22;2.83;;;;;;;;;;4978835;28;20221;-75
2022/04/28 10:33:20;;;;;;;3.50;2.65;;;;;;;;;;5001765;28;20527;-74
2022/04/28 10:35:48;;;;;;;5.65;3.15;;;;;;;;;;5015851;28;20223;-73
2022/04/28 10:38:38;;;;;;;4.18;2.67;;;;;;;;;;5015328;28;20660;-73
2022/04/28 10:41:08;;;;;;;5.38;2.78;;;;;;;;;;5015370;28;20206;-74
2022/04/28 10:43:40;;;;;;;5.68;2.80;;;;;;;;;;5015831;28;20218;-73
2022/04/28 10:46:07;;;;;;;5.32;2.88;;;;;;;;;;5014814;28;20243;-73
2022/04/28 10:48:45;;;;;;;4.40;2.40;;;;;;;;;;5015414;28;20237;-73
2022/04/28 10:51:20;;;;;;;3.15;2.13;;;;;;;;;;5015369;28;20209;-72
2022/04/28 10:54:21;;;;;;;2.85;2.30;;;;;;;;;;5030952;28;20690;-72
2022/04/28 10:56:54;;;;;;;4.18;2.75;;;;;;;;;;5015322;28;20189;-71
2022/04/28 10:59:32;;;;;;;6.13;3.13;;;;;;;;;;5014894;28;20200;-71
2022/04/28 11:02:13;;;;;;;5.22;3.20;;;;;;;;;;5015020;28;20263;-73
2022/04/28 11:04:48;;;;;;;4.00;2.80;;;;;;;;;;5015154;28;20271;-73
2022/04/28 11:07:19;;;;;;;4.57;3.20;;;;;;;;;;5014570;28;20196;-69
2022/04/28 11:10:07;;;;;;;2.88;2.60;;;;;;;;;;5019183;28;20204;-66
2022/04/28 11:12:38;;;;;;;5.38;3.30;;;;;;;;;;5018836;28;20205;-70
2022/04/28 11:15:08;;;;;;;4.32;2.65;;;;;;;;;;5019111;28;20198;-71
2022/04/28 11:17:38;;;;;;;3.17;2.53;;;;;;;;;;5034552;28;20561;-71
2022/04/28 11:20:11;;;;;;;7.28;2.95;;;;;;;;;;5019174;28;20276;-71
2022/04/28 11:22:54;;;;;;;17.75;3.08;;;;;;;;;;5017486;28;20212;-71
2022/04/28 11:25:22;;;;;;;4.57;3.13;;;;;;;;;;5018678;28;20702;-70
2022/04/28 11:27:51;;;;;;;4.40;2.80;;;;;;;;;;5017901;28;20213;-71
2022/04/28 11:30:21;;;;;;;5.78;3.15;;;;;;;;;;5018558;28;20224;-71
2022/04/28 11:32:52;;;;;;;2.70;2.40;;;;;;;;;;5018716;28;20205;-70
2022/04/28 11:35:20;;;;;;;12.30;7.32;;;;;;;;;;5018424;28;20644;-70
2022/04/28 11:37:53;;;;;;;11.40;6.57;;;;;;;;;;5019191;28;20213;-71
2022/04/28 11:40:24;;;;;;;4.07;2.70;;;;;;;;;;5018659;28;20275;-71
2022/04/28 11:43:00;;;;;;;14.38;3.25;;;;;;;;;;5018492;28;20309;-70
2022/04/28 11:45:32;;;;;;;5.00;2.50;;;;;;;;;;5027809;28;20216;-67
2022/04/28 11:48:00;;;;;;;10.98;4.68;;;;;;;;;;5034137;28;20193;-69
2022/04/28 11:50:30;;;;;;;9.93;6.03;;;;;;;;;;5036912;28;20203;-61
2022/04/28 11:52:59;;;;;;;6.68;3.78;;;;;;;;;;5036799;28;20181;-61
2022/04/28 11:55:28;;;;;;;6.75;3.63;;;;;;;;;;5036531;28;20280;-63
2022/04/28 11:57:56;;;;;;;6.38;3.28;;;;;;;;;;5036479;28;20196;-67
2022/04/28 12:00:26;;;;;;;6.75;3.08;;;;;;;;;;5036954;28;20196;-67
2022/04/28 12:02:54;;;;;;;4.10;3.05;;;;;;;;;;5020432;28;20592;-69
2022/04/28 12:05:25;;;;;;;8.55;3.60;;;;;;;;;;5017370;28;20244;-67
2022/04/28 12:07:53;;;;;;;6.40;3.75;;;;;;;;;;5017060;28;20232;-68
2022/04/28 12:16:07;;;;;;;6.55;3.78;;;;;;;;;;5056550;28;20319;-70
2022/04/28 12:21:24;;;;;;;4.57;3.03;;;;;;;;;;5056001;28;20255;-70
2022/04/28 12:23:57;;;;;;;5.07;3.80;;;;;;;;;;5056570;28;20292;-71
2022/04/28 12:26:24;;;;;;;7.53;3.75;;;;;;;;;;5056533;28;20686;-66
2022/04/28 12:28:52;;;;;;;8.57;4.10;;;;;;;;;;5056271;28;20238;-67
2022/04/28 12:31:30;;;;;;;7.95;4.43;;;;;;;;;;5055940;28;20224;-66
2022/04/28 12:34:23;;;;;;;6.22;4.25;;;;;;;;;;5056533;28;20608;-70
2022/04/28 12:37:00;;;;;;;6.65;3.95;;;;;;;;;;5056304;28;20246;-68
2022/04/28 12:39:31;;;;;;;6.63;4.53;;;;;;;;;;5056568;28;20255;-63
2022/04/28 12:42:09;;;;;;;7.40;4.28;;;;;;;;;;5055306;28;20232;-64
2022/04/28 12:44:44;;;;;;;5.78;4.00;;;;;;;;;;5056466;28;20220;-64
2022/04/28 12:47:14;;;;;;;7.38;4.32;;;;;;;;;;5047153;28;20245;-68
2022/04/28 12:49:45;;;;;;;7.00;3.78;;;;;;;;;;5035962;28;20251;-69
2022/04/28 12:52:26;;;;;;;5.45;4.18;;;;;;;;;;5035830;28;20228;-68
2022/04/28 12:55:04;;;;;;;7.28;3.42;;;;;;;;;;5036321;28;20232;-65
2022/04/28 12:57:32;;;;;;;5.65;3.70;;;;;;;;;;5029595;28;20327;-72
2022/04/28 13:00:03;;;;;;;6.95;3.92;;;;;;;;;;5025011;28;20676;-62
2022/04/28 13:02:32;;;;;;;4.95;2.92;;;;;;;;;;5025509;28;20221;-69
2022/04/28 13:05:09;;;;;;;5.43;3.50;;;;;;;;;;5036056;28;20670;-67
2022/04/28 13:07:56;;;;;;;5.07;3.55;;;;;;;;;;5035802;28;20232;-68
2022/04/28 13:10:24;;;;;;;4.35;2.50;;;;;;;;;;5035259;28;20252;-67
2022/04/28 13:12:52;;;;;;;6.00;2.40;;;;;;;;;;5034566;28;20675;-61
2022/04/28 13:15:19;;;;;;;4.28;2.35;;;;;;;;;;5035750;28;20224;-68
2022/04/28 13:17:47;;;;;;;3.45;2.25;;;;;;;;;;5047886;28;20263;-72
2022/04/28 13:20:14;;;;;;;3.60;2.35;;;;;;;;;;5055590;28;20281;-67
2022/04/28 13:22:41;;;;;;;2.97;2.38;;;;;;;;;;5055204;28;20239;-64
2022/04/28 13:25:08;;;;;;;3.25;2.50;;;;;;;;;;5055722;28;20568;-62
2022/04/28 13:27:35;;;;;;;5.28;2.53;;;;;;;;;;5055139;28;20289;-64
2022/04/28 13:30:03;;;;;;;3.85;2.58;;;;;;;;;;5055566;28;20224;-61
2022/04/28 13:32:30;;;;;;;3.88;2.45;;;;;;;;;;5054708;28;20252;-61
2022/04/28 13:34:58;;;;;;;5.00;2.97;;;;;;;;;;5055200;28;20259;-61
2022/04/28 13:37:26;;;;;;;3.53;2.20;;;;;;;;;;5054923;28;20235;-60
2022/04/28 13:39:53;;;;;;;3.78;2.80;;;;;;;;;;5055098;28;20749;-62
2022/04/28 13:42:20;;;;;;;4.72;2.60;;;;;;;;;;5054929;28;20234;-62
2022/04/28 13:44:48;;;;;;;4.57;3.03;;;;;;;;;;5054997;28;20298;-59
2022/04/28 13:47:15;;;;;;;3.28;2.80;;;;;;;;;;5045844;28;20254;-61
2022/04/28 13:49:42;;;;;;;6.03;2.80;;;;;;;;;;5034857;28;20232;-62
2022/04/28 13:52:10;;;;;;;3.78;3.00;;;;;;;;;;5035103;28;20232;-62
2022/04/28 13:54:37;;;;;;;6.72;3.03;;;;;;;;;;5034988;28;20750;-63
2022/04/28 13:57:05;;;;;;;3.85;2.80;;;;;;;;;;5035043;28;20232;-66
2022/04/28 13:59:33;;;;;;;5.13;3.92;;;;;;;;;;5034671;28;20236;-66
2022/04/28 14:02:00;;;;;;;7.28;3.92;;;;;;;;;;5034589;28;20625;-60
2022/04/28 14:04:27;;;;;;;4.63;3.80;;;;;;;;;;5031210;28;20248;-66
2022/04/28 14:06:54;;;;;;;6.85;3.40;;;;;;;;;;5034308;28;20282;-50
2022/04/28 14:09:22;;;;;;;8.55;3.78;;;;;;;;;;5034391;28;20291;-55
2022/04/28 14:11:49;;;;;;;4.32;3.30;;;;;;;;;;5034700;28;20693;-57
2022/04/28 14:14:16;;;;;;;4.15;3.15;;;;;;;;;;5034435;28;20236;-59
2022/04/28 14:16:44;;;;;;;4.55;4.15;;;;;;;;;;5038551;28;20220;-59
2022/04/28 14:19:11;;;;;;;5.00;3.80;;;;;;;;;;5054510;28;20540;-59
2022/04/28 14:21:38;;;;;;;5.22;4.20;;;;;;;;;;5054297;28;20215;-59
2022/04/28 14:24:07;;;;;;;4.95;4.18;;;;;;;;;;5054145;28;20737;-60
2022/04/28 14:26:35;;;;;;;6.70;4.32;;;;;;;;;;5054097;28;20234;-61
2022/04/28 14:29:03;;;;;;;6.60;4.03;;;;;;;;;;5054235;28;20298;-61
2022/04/28 14:31:31;;;;;;;7.57;4.32;;;;;;;;;;5053822;28;20318;-60
2022/04/28 14:34:21;;;;;;;4.70;4.05;;;;;;;;;;5054039;28;20693;-61
2022/04/28 14:36:49;;;;;;;4.78;4.05;;;;;;;;;;5054615;28;20319;-64
2022/04/28 14:39:16;;;;;;;6.40;4.25;;;;;;;;;;5052945;28;20289;-59
2022/04/28 14:41:43;;;;;;;7.03;4.10;;;;;;;;;;5054036;28;20274;-60
2022/04/28 14:44:30;;;;;;;5.13;3.78;;;;;;;;;;5053475;28;20247;-61
2022/04/28 14:46:58;;;;;;;5.63;4.10;;;;;;;;;;5044018;28;20569;-64
2022/04/28 14:52:21;;;;;;;5.65;4.10;;;;;;;;;;5016785;28;20256;-66
2022/04/28 14:55:03;;;;;;;5.38;4.03;;;;;;;;;;5034039;28;20224;-63
2022/04/28 14:57:35;;;;;;;6.28;4.28;;;;;;;;;;5025045;28;20233;-62
2022/04/28 15:00:05;;;;;;;8.68;5.47;;;;;;;;;;5013957;28;20754;-61
2022/04/28 15:02:32;;;;;;;11.02;5.57;;;;;;;;;;5017490;28;20224;-60
2022/04/28 15:05:00;;;;;;;5.78;4.40;;;;;;;;;;5018247;28;20240;-66
2022/04/28 15:07:27;;;;;;;5.75;4.60;;;;;;;;;;5019310;28;20217;-64
2022/04/28 15:09:56;;;;;;;6.97;4.75;;;;;;;;;;5033674;28;20240;-64
2022/04/28 15:12:23;;;;;;;5.93;4.50;;;;;;;;;;5033801;28;20225;-63
2022/04/28 15:14:53;;;;;;;10.32;4.93;;;;;;;;;;5033681;28;20239;-64
2022/04/28 15:17:21;;;;;;;6.43;4.78;;;;;;;;;;5034706;28;20227;-64
2022/04/28 15:19:48;;;;;;;5.90;4.40;;;;;;;;;;5053673;28;20228;-65
2022/04/28 15:22:15;;;;;;;7.30;5.07;;;;;;;;;;5053384;28;20250;-63
2022/04/28 15:24:44;;;;;;;7.10;5.03;;;;;;;;;;5053537;28;20293;-64
2022/04/28 15:27:11;;;;;;;8.57;4.40;;;;;;;;;;5041506;28;20217;-63
2022/04/28 15:29:39;;;;;;;5.18;4.30;;;;;;;;;;5024756;28;20292;-64
2022/04/28 15:32:07;;;;;;;5.10;3.78;;;;;;;;;;5031410;28;20220;-73
2022/04/28 15:34:37;;;;;;;6.22;4.15;;;;;;;;;;5013282;28;20221;-64
2022/04/28 15:37:06;;;;;;;5.57;3.80;;;;;;;;;;5013962;28;20229;-70
2022/04/28 15:39:33;;;;;;;5.65;3.90;;;;;;;;;;5013934;28;20675;-69
2022/04/28 15:42:00;;;;;;;5.32;3.72;;;;;;;;;;5014015;28;20225;-69
2022/04/28 15:44:28;;;;;;;5.75;3.95;;;;;;;;;;5013182;28;20265;-70
2022/04/28 15:46:56;;;;;;;7.30;4.07;;;;;;;;;;5024451;28;20701;-61
2022/04/28 15:49:23;;;;;;;4.72;4.10;;;;;;;;;;5051885;28;20305;-68
2022/04/28 15:51:50;;;;;;;6.75;4.22;;;;;;;;;;5053339;28;20223;-62
2022/04/28 15:54:18;;;;;;;7.22;4.20;;;;;;;;;;5054733;28;20619;-65